Time;durP1;ratioP1;P1;durP2;ratioP2;P2;SDS_P1;SDS_P2;PMS_P1;PMS_P2;Temp;Humidity;BMP_temperature;BMP_pressure;BME280_temperature;BME280_humidity;BME280_pressure;Samples;Min_cycle;Max_cycle;Signal;HPM_P1;HPM_P2
2023/04/23 00:01:57;;;;;;;4.57;2.90;;;14.30;98.00;;;;;;5032769;28;20454;-65
2023/04/23 00:04:25;;;;;;;4.00;2.40;;;14.30;98.00;;;;;;5032605;28;20961;-66
2023/04/23 00:06:53;;;;;;;5.60;2.77;;;14.20;98.00;;;;;;5032222;28;20952;-65
2023/04/23 00:09:22;;;;;;;4.00;2.40;;;14.20;98.00;;;;;;5032495;28;20462;-65
2023/04/23 00:11:50;;;;;;;5.80;2.83;;;14.20;98.00;;;;;;5015086;28;20473;-67
2023/04/23 00:14:21;;;;;;;6.20;3.00;;;14.10;98.00;;;;;;5032254;28;20461;-66
2023/04/23 00:16:49;;;;;;;5.73;2.77;;;14.20;98.00;;;;;;5031445;28;20487;-66
2023/04/23 00:19:24;;;;;;;2.80;2.20;;;14.10;98.00;;;;;;5032201;28;20465;-67
2023/04/23 00:21:51;;;;;;;5.03;2.90;;;14.20;98.00;;;;;;5032244;28;20463;-65
2023/04/23 00:24:18;;;;;;;4.37;2.57;;;14.30;98.00;;;;;;5032217;28;20528;-66
2023/04/23 00:26:46;;;;;;;5.30;2.80;;;14.30;98.00;;;;;;5032215;28;20509;-65
2023/04/23 00:29:13;;;;;;;4.10;2.60;;;14.30;98.00;;;;;;5031966;28;20458;-66
2023/04/23 00:31:41;;;;;;;3.93;2.50;;;14.30;98.00;;;;;;5031912;28;20532;-66
2023/04/23 00:34:08;;;;;;;4.63;2.37;;;14.40;98.00;;;;;;5031876;28;20461;-65
2023/04/23 00:36:35;;;;;;;6.37;2.90;;;14.50;98.00;;;;;;5031632;28;20483;-67
2023/04/23 00:39:02;;;;;;;3.53;2.33;;;14.60;98.00;;;;;;5031960;28;20505;-65
2023/04/23 00:41:30;;;;;;;3.20;2.40;;;14.70;98.00;;;;;;5031820;28;20565;-65
2023/04/23 00:43:58;;;;;;;2.90;2.30;;;14.80;98.00;;;;;;5014501;28;20462;-65
2023/04/23 00:46:26;;;;;;;3.80;2.50;;;14.70;98.00;;;;;;5031988;28;20457;-66
2023/04/23 00:48:54;;;;;;;3.83;2.33;;;14.70;98.00;;;;;;5032181;28;20494;-66
2023/04/23 00:51:23;;;;;;;2.90;2.10;;;14.60;98.00;;;;;;5031738;28;20459;-65
2023/04/23 00:53:50;;;;;;;3.47;2.40;;;14.60;98.00;;;;;;5031712;28;20719;-66
2023/04/23 00:56:18;;;;;;;3.33;2.20;;;14.60;98.00;;;;;;5031618;28;20833;-67
2023/04/23 00:58:45;;;;;;;3.77;2.00;;;14.70;98.00;;;;;;5014170;28;20465;-65
2023/04/23 01:01:12;;;;;;;4.20;2.17;;;14.70;98.00;;;;;;5031536;28;20459;-65
2023/04/23 01:03:41;;;;;;;2.87;2.17;;;14.80;98.00;;;;;;5031531;28;20473;-66
2023/04/23 01:06:09;;;;;;;3.60;2.50;;;14.60;98.00;;;;;;5031503;28;20454;-65
2023/04/23 01:08:36;;;;;;;3.17;2.10;;;14.60;98.00;;;;;;5031275;28;20474;-65
2023/04/23 01:11:04;;;;;;;4.60;2.00;;;14.70;98.00;;;;;;5031263;28;20464;-66
2023/04/23 01:13:31;;;;;;;2.90;1.97;;;14.70;98.00;;;;;;5031383;28;20455;-65
2023/04/23 01:15:58;;;;;;;3.13;2.50;;;14.70;98.00;;;;;;5031293;28;20446;-66
2023/04/23 01:18:25;;;;;;;3.13;1.70;;;14.70;98.00;;;;;;5031188;28;20495;-65
2023/04/23 01:20:53;;;;;;;6.13;2.73;;;14.70;98.00;;;;;;5031218;28;20457;-65
2023/04/23 01:23:22;;;;;;;2.20;1.73;;;14.70;98.00;;;;;;5031248;28;20959;-66
2023/04/23 01:25:50;;;;;;;2.50;2.00;;;14.80;98.00;;;;;;5030926;28;20505;-66
2023/04/23 01:28:17;;;;;;;3.13;2.17;;;14.80;98.00;;;;;;5031175;28;20459;-65
2023/04/23 01:30:46;;;;;;;2.80;1.93;;;14.80;98.00;;;;;;5013422;28;20854;-65
2023/04/23 01:33:13;;;;;;;2.87;1.80;;;14.80;98.00;;;;;;5031210;28;20457;-66
2023/04/23 01:35:41;;;;;;;3.20;1.80;;;14.80;98.00;;;;;;5031225;28;20458;-66
2023/04/23 01:38:11;;;;;;;2.30;1.70;;;14.60;98.00;;;;;;5031111;28;20490;-66
2023/04/23 01:40:39;;;;;;;3.97;1.83;;;14.60;98.00;;;;;;5031184;28;20462;-65
2023/04/23 01:43:11;;;;;;;3.40;2.40;;;14.50;98.00;;;;;;5031435;28;20461;-65
2023/04/23 01:45:38;;;;;;;2.93;2.30;;;14.40;98.00;;;;;;5031257;28;20462;-65
2023/04/23 01:48:05;;;;;;;2.30;1.77;;;14.40;98.00;;;;;;5031033;28;20468;-65
2023/04/23 01:50:33;;;;;;;3.57;2.37;;;14.40;98.00;;;;;;5031068;28;20464;-66
2023/04/23 01:53:00;;;;;;;2.60;1.60;;;14.40;98.00;;;;;;5030919;28;20474;-66
2023/04/23 01:55:27;;;;;;;2.80;1.87;;;14.40;98.00;;;;;;5013506;28;20979;-65
2023/04/23 01:57:56;;;;;;;2.60;1.83;;;14.40;98.00;;;;;;5030282;28;20536;-65
2023/04/23 02:00:24;;;;;;;2.77;1.87;;;14.40;98.00;;;;;;5030943;28;20528;-66
2023/04/23 02:02:52;;;;;;;2.40;1.93;;;14.40;98.00;;;;;;5031137;28;20505;-64
2023/04/23 02:05:20;;;;;;;2.27;1.70;;;14.30;98.00;;;;;;5030649;28;20991;-66
2023/04/23 02:07:48;;;;;;;1.87;1.70;;;14.20;98.00;;;;;;5030653;28;20474;-66
2023/04/23 02:10:15;;;;;;;2.30;1.60;;;14.20;98.00;;;;;;5030658;28;20469;-65
2023/04/23 02:12:42;;;;;;;8.30;1.80;;;14.20;98.00;;;;;;5030852;28;20477;-65
2023/04/23 02:15:12;;;;;;;2.70;2.00;;;14.20;98.00;;;;;;5030572;28;20458;-67
2023/04/23 02:17:40;;;;;;;3.30;1.80;;;14.20;98.00;;;;;;5030853;28;20498;-64
2023/04/23 02:20:09;;;;;;;2.47;1.70;;;14.20;98.00;;;;;;5030664;28;20469;-65
2023/04/23 02:22:38;;;;;;;2.37;1.80;;;14.10;98.00;;;;;;5030783;28;20496;-66
2023/04/23 02:25:07;;;;;;;1.60;1.50;;;14.10;98.00;;;;;;5030614;28;20473;-65
2023/04/23 02:27:34;;;;;;;2.17;1.60;;;14.10;98.00;;;;;;5030654;28;20552;-66
2023/04/23 02:30:01;;;;;;;2.33;1.90;;;14.10;98.00;;;;;;5031076;28;20462;-66
2023/04/23 02:32:30;;;;;;;2.30;1.67;;;14.10;98.00;;;;;;5031821;28;20459;-65
2023/04/23 02:34:58;;;;;;;3.60;2.23;;;14.10;98.00;;;;;;5031075;28;20462;-65
2023/04/23 02:37:25;;;;;;;1.83;1.40;;;14.00;98.00;;;;;;5031877;28;20939;-66
2023/04/23 02:39:52;;;;;;;2.57;1.90;;;14.00;98.00;;;;;;5034235;28;20460;-66
2023/04/23 02:42:19;;;;;;;1.93;1.70;;;14.00;98.00;;;;;;5034658;28;20454;-65
2023/04/23 02:44:47;;;;;;;1.90;1.80;;;13.90;98.00;;;;;;5034239;28;20584;-66
2023/04/23 02:47:14;;;;;;;3.33;1.90;;;13.80;98.00;;;;;;5034063;28;20952;-67
2023/04/23 02:49:42;;;;;;;2.87;1.80;;;13.80;98.00;;;;;;5034047;28;20531;-64
2023/04/23 02:52:10;;;;;;;3.20;1.90;;;13.80;98.00;;;;;;5034011;28;20462;-66
2023/04/23 02:54:37;;;;;;;2.17;1.67;;;13.90;98.00;;;;;;5034100;28;20458;-65
2023/04/23 02:57:04;;;;;;;3.50;1.87;;;13.90;98.00;;;;;;5033866;28;20897;-65
2023/04/23 02:59:32;;;;;;;2.40;1.73;;;13.90;98.00;;;;;;5033889;28;20462;-67
2023/04/23 03:01:59;;;;;;;2.57;1.70;;;14.00;98.00;;;;;;5033680;28;20816;-65
2023/04/23 03:04:26;;;;;;;2.37;1.93;;;14.00;98.00;;;;;;5033577;28;20489;-65
2023/04/23 03:06:55;;;;;;;2.40;1.77;;;14.10;98.00;;;;;;5033735;28;20462;-65
2023/04/23 03:09:22;;;;;;;1.90;1.67;;;14.00;98.00;;;;;;5033674;28;20466;-67
2023/04/23 03:11:49;;;;;;;3.07;2.07;;;14.00;98.00;;;;;;5016158;28;20894;-65
2023/04/23 03:14:16;;;;;;;3.27;1.80;;;13.90;98.00;;;;;;5033647;28;20589;-65
2023/04/23 03:16:43;;;;;;;2.63;1.83;;;13.90;98.00;;;;;;5033562;28;20450;-66
2023/04/23 03:19:11;;;;;;;3.20;2.17;;;13.90;98.00;;;;;;5015830;28;20536;-66
2023/04/23 03:21:38;;;;;;;2.57;1.70;;;14.00;98.00;;;;;;5033449;28;20462;-65
2023/04/23 03:24:07;;;;;;;4.07;2.00;;;13.90;98.00;;;;;;5033474;28;20459;-65
2023/04/23 03:26:34;;;;;;;8.23;1.87;;;13.90;98.00;;;;;;5033238;28;20458;-66
2023/04/23 03:29:01;;;;;;;2.20;1.70;;;13.90;98.00;;;;;;5033264;28;20455;-67
2023/04/23 03:31:29;;;;;;;3.17;1.90;;;13.90;98.00;;;;;;5033292;28;20960;-66
2023/04/23 03:33:56;;;;;;;3.90;2.10;;;14.00;98.00;;;;;;5015714;28;20867;-65
2023/04/23 03:36:23;;;;;;;1.90;1.57;;;14.00;98.00;;;;;;5033207;28;20455;-65
2023/04/23 03:38:50;;;;;;;2.33;1.80;;;13.90;98.00;;;;;;5033051;28;20485;-65
2023/04/23 03:41:21;;;;;;;5.80;2.10;;;14.00;98.00;;;;;;5032972;28;20462;-65
2023/04/23 03:43:48;;;;;;;2.30;1.80;;;13.90;98.00;;;;;;5033267;28;20459;-65
2023/04/23 03:46:15;;;;;;;3.90;1.90;;;13.90;98.00;;;;;;5032773;28;20454;-65
2023/04/23 03:48:42;;;;;;;3.50;2.00;;;13.90;98.00;;;;;;5032960;28;20513;-66
2023/04/23 03:51:09;;;;;;;5.17;2.03;;;14.00;98.00;;;;;;5031675;28;20497;-65
2023/04/23 03:53:37;;;;;;;2.53;1.90;;;13.90;98.00;;;;;;5032765;28;20458;-65
2023/04/23 03:56:04;;;;;;;2.30;1.80;;;13.90;98.00;;;;;;5015151;28;20484;-64
2023/04/23 03:58:34;;;;;;;2.00;1.60;;;13.90;98.00;;;;;;5032594;28;20485;-65
2023/04/23 04:01:01;;;;;;;3.13;2.03;;;13.90;98.00;;;;;;5032468;28;20462;-65
2023/04/23 04:03:28;;;;;;;2.23;1.70;;;13.80;98.00;;;;;;5032774;28;20464;-65
2023/04/23 04:05:55;;;;;;;2.80;2.10;;;13.80;98.00;;;;;;5032399;28;21004;-65
2023/04/23 04:08:22;;;;;;;1.97;1.70;;;13.80;98.00;;;;;;5032315;28;20474;-65
2023/04/23 04:10:49;;;;;;;3.50;1.80;;;13.80;98.00;;;;;;5032417;28;20499;-65
2023/04/23 04:13:16;;;;;;;2.47;1.83;;;13.80;98.00;;;;;;5032758;28;20471;-66
2023/04/23 04:15:45;;;;;;;2.80;1.70;;;13.80;98.00;;;;;;5032447;28;20830;-65
2023/04/23 04:18:12;;;;;;;1.97;1.87;;;13.70;98.00;;;;;;5032213;28;20854;-65
2023/04/23 04:20:43;;;;;;;2.90;1.73;;;13.70;98.00;;;;;;5032333;28;20455;-66
2023/04/23 04:23:10;;;;;;;2.40;1.80;;;13.60;98.00;;;;;;5032383;28;20558;-67
2023/04/23 04:25:38;;;;;;;2.37;1.93;;;13.70;98.00;;;;;;5032321;28;20512;-64
2023/04/23 04:28:06;;;;;;;3.00;1.87;;;13.60;98.00;;;;;;5032195;28;20517;-65
2023/04/23 04:30:34;;;;;;;2.17;1.67;;;13.70;98.00;;;;;;5032149;28;20678;-65
2023/04/23 04:33:03;;;;;;;3.57;2.00;;;13.70;98.00;;;;;;5032012;28;20456;-65
2023/04/23 04:35:30;;;;;;;2.07;1.90;;;13.70;98.00;;;;;;5014417;28;20464;-65
2023/04/23 04:37:57;;;;;;;3.17;2.07;;;13.60;98.00;;;;;;5014453;28;20485;-66
2023/04/23 04:40:25;;;;;;;4.27;2.30;;;13.60;98.00;;;;;;5031782;28;20465;-65
2023/04/23 04:42:53;;;;;;;3.63;1.93;;;13.70;98.00;;;;;;5031797;28;20545;-65
2023/04/23 04:45:22;;;;;;;4.40;1.87;;;13.70;98.00;;;;;;5031682;28;21015;-65
2023/04/23 04:47:49;;;;;;;2.23;1.70;;;13.70;98.00;;;;;;5031869;28;20829;-65
2023/04/23 04:50:17;;;;;;;3.23;1.70;;;13.70;98.00;;;;;;5031782;28;20468;-66
2023/04/23 04:52:44;;;;;;;2.77;1.77;;;13.60;98.00;;;;;;5014158;28;20466;-65
2023/04/23 04:55:11;;;;;;;2.00;1.70;;;13.60;98.00;;;;;;5031823;28;20459;-65
2023/04/23 04:57:39;;;;;;;3.47;1.50;;;13.70;98.00;;;;;;5031653;28;20490;-65
2023/04/23 05:00:21;;;;;;;2.20;1.70;;;13.70;98.00;;;;;;5031365;28;20461;-65
2023/04/23 05:02:49;;;;;;;2.33;1.70;;;13.70;98.00;;;;;;5014428;28;20936;-66
2023/04/23 05:05:19;;;;;;;2.27;1.80;;;13.70;98.00;;;;;;5031325;28;20463;-65
2023/04/23 05:07:46;;;;;;;2.47;1.80;;;13.70;98.00;;;;;;5031367;28;20504;-65
2023/04/23 05:10:14;;;;;;;2.23;1.63;;;13.60;98.00;;;;;;5031469;28;20476;-66
2023/04/23 05:12:41;;;;;;;2.40;1.93;;;13.50;98.00;;;;;;5031547;28;20465;-65
2023/04/23 05:15:12;;;;;;;2.97;2.10;;;13.50;98.00;;;;;;5013843;28;20458;-65
2023/04/23 05:17:39;;;;;;;2.30;1.80;;;13.60;98.00;;;;;;5031408;28;20453;-65
2023/04/23 05:20:09;;;;;;;2.53;1.80;;;13.70;98.00;;;;;;5013741;28;20489;-65
2023/04/23 05:22:41;;;;;;;3.33;1.67;;;13.60;98.00;;;;;;5031744;28;20500;-65
2023/04/23 05:25:10;;;;;;;2.90;1.80;;;13.70;98.00;;;;;;5013859;28;20562;-65
2023/04/23 05:27:37;;;;;;;2.07;1.50;;;13.60;98.00;;;;;;5031471;28;20461;-66
2023/04/23 05:30:06;;;;;;;3.33;1.90;;;13.50;98.00;;;;;;5030848;28;20450;-66
2023/04/23 05:32:34;;;;;;;2.60;1.80;;;13.60;98.00;;;;;;5031256;28;20459;-65
2023/04/23 05:35:01;;;;;;;3.43;1.87;;;13.60;98.00;;;;;;5031174;28;20508;-65
2023/04/23 05:37:29;;;;;;;3.10;2.07;;;13.70;98.00;;;;;;5031430;28;20537;-65
2023/04/23 05:39:57;;;;;;;3.13;2.00;;;13.80;98.00;;;;;;5031145;28;20870;-67
2023/04/23 05:42:24;;;;;;;4.03;2.00;;;14.00;98.00;;;;;;5031102;28;20458;-65
2023/04/23 05:44:51;;;;;;;2.27;1.90;;;14.00;98.00;;;;;;5031221;28;20486;-67
2023/04/23 05:47:18;;;;;;;2.80;2.30;;;14.00;98.00;;;;;;5030845;28;20453;-64
2023/04/23 05:49:46;;;;;;;2.57;1.87;;;14.00;98.00;;;;;;5031118;28;20462;-67
2023/04/23 05:52:13;;;;;;;2.23;1.80;;;14.00;98.00;;;;;;5013410;28;20451;-66
2023/04/23 05:54:41;;;;;;;3.10;2.10;;;14.30;98.00;;;;;;5013415;28;20545;-66
2023/04/23 05:57:11;;;;;;;3.37;2.00;;;14.10;98.00;;;;;;5030838;28;20458;-65
2023/04/23 05:59:38;;;;;;;5.30;1.90;;;14.10;98.00;;;;;;5030804;28;20573;-66
2023/04/23 06:02:06;;;;;;;2.83;2.20;;;14.10;98.00;;;;;;5030922;28;20451;-62
2023/04/23 06:04:33;;;;;;;3.37;1.83;;;14.30;98.00;;;;;;5030875;28;20470;-62
2023/04/23 06:07:00;;;;;;;2.80;1.80;;;14.20;98.00;;;;;;5030549;28;20466;-62
2023/04/23 06:09:27;;;;;;;3.43;2.40;;;14.20;98.00;;;;;;5030850;28;20524;-61
2023/04/23 06:11:54;;;;;;;5.40;2.13;;;14.30;98.00;;;;;;5030821;28;20462;-62
2023/04/23 06:14:23;;;;;;;3.17;2.23;;;14.40;98.00;;;;;;5032661;28;20451;-62
2023/04/23 06:16:50;;;;;;;2.30;1.77;;;14.50;98.00;;;;;;5000784;28;20870;-62
2023/04/23 06:19:17;;;;;;;3.20;2.40;;;14.50;98.00;;;;;;5034498;28;20486;-62
2023/04/23 06:21:44;;;;;;;7.50;2.27;;;14.60;98.00;;;;;;5034471;28;20462;-62
2023/04/23 06:24:11;;;;;;;2.67;1.80;;;14.50;98.00;;;;;;5034578;28;20457;-62
2023/04/23 06:26:38;;;;;;;2.13;1.40;;;14.40;98.00;;;;;;5034403;28;20458;-62
2023/04/23 06:29:05;;;;;;;2.03;1.60;;;14.50;98.00;;;;;;5034503;28;20459;-62
2023/04/23 06:31:33;;;;;;;3.10;1.63;;;14.50;98.00;;;;;;5016910;28;20469;-63
2023/04/23 06:34:00;;;;;;;3.80;2.47;;;14.30;98.00;;;;;;5034189;28;20457;-64
2023/04/23 06:36:31;;;;;;;5.10;2.10;;;14.30;98.00;;;;;;5034186;28;20462;-63
2023/04/23 06:38:58;;;;;;;2.80;2.00;;;14.30;98.00;;;;;;5016741;28;20485;-61
2023/04/23 06:41:27;;;;;;;2.27;1.60;;;14.40;98.00;;;;;;5033953;28;20458;-62
2023/04/23 06:43:54;;;;;;;1.70;1.70;;;14.50;98.00;;;;;;5034024;28;20513;-62
2023/04/23 06:46:22;;;;;;;1.83;1.53;;;14.60;98.00;;;;;;5016196;28;20800;-61
2023/04/23 06:48:50;;;;;;;2.63;1.70;;;14.80;98.00;;;;;;5034180;28;20455;-63
2023/04/23 06:51:17;;;;;;;2.27;1.90;;;15.00;98.00;;;;;;5033979;28;20489;-64
2023/04/23 06:53:45;;;;;;;2.50;1.40;;;15.10;98.00;;;;;;5034067;28;20768;-62
2023/04/23 06:56:12;;;;;;;1.97;1.53;;;15.00;98.00;;;;;;5033783;28;20813;-61
2023/04/23 06:58:40;;;;;;;1.70;1.50;;;14.90;98.00;;;;;;5033770;28;20478;-62
2023/04/23 07:01:07;;;;;;;2.17;1.57;;;14.80;98.00;;;;;;5033692;28;20948;-62
2023/04/23 07:03:35;;;;;;;2.07;1.47;;;14.80;98.00;;;;;;5033721;28;20474;-60
2023/04/23 07:06:04;;;;;;;1.80;1.50;;;15.00;98.00;;;;;;5033724;28;20501;-61
2023/04/23 07:08:31;;;;;;;2.83;1.77;;;15.00;98.00;;;;;;5033625;28;20482;-62
2023/04/23 07:10:59;;;;;;;2.33;1.77;;;14.90;98.00;;;;;;5033795;28;20462;-61
2023/04/23 07:13:26;;;;;;;1.70;1.37;;;15.10;98.00;;;;;;5033930;28;20450;-62
2023/04/23 07:15:53;;;;;;;2.13;1.67;;;15.00;98.00;;;;;;5033558;28;20478;-62
2023/04/23 07:18:20;;;;;;;3.93;1.57;;;15.00;98.00;;;;;;5033448;28;20459;-62
2023/04/23 07:20:47;;;;;;;1.57;1.30;;;15.00;98.00;;;;;;5033523;28;20455;-61
2023/04/23 07:23:16;;;;;;;1.80;1.50;;;15.10;98.00;;;;;;5015874;28;20450;-62
2023/04/23 07:25:43;;;;;;;3.60;1.53;;;15.30;98.00;;;;;;5033169;28;20467;-61
2023/04/23 07:28:11;;;;;;;1.50;1.43;;;15.30;98.00;;;;;;5033268;28;20820;-62
2023/04/23 07:30:38;;;;;;;1.93;1.70;;;15.40;98.00;;;;;;5032933;28;20463;-61
2023/04/23 07:33:05;;;;;;;2.13;1.43;;;15.50;98.00;;;;;;5033272;28;20466;-62
2023/04/23 07:35:32;;;;;;;1.80;1.33;;;15.50;98.00;;;;;;5032874;28;21040;-62
2023/04/23 07:38:00;;;;;;;1.70;1.47;;;15.40;98.00;;;;;;5033047;28;20454;-62
2023/04/23 07:40:29;;;;;;;1.97;1.30;;;15.50;98.00;;;;;;5032824;28;20487;-62
2023/04/23 07:42:57;;;;;;;1.53;1.50;;;15.60;98.00;;;;;;5033032;28;20817;-62
2023/04/23 07:45:24;;;;;;;1.90;1.43;;;15.80;98.00;;;;;;5032453;28;20450;-62
2023/04/23 07:47:51;;;;;;;1.60;1.33;;;15.90;98.00;;;;;;5032217;28;20457;-63
2023/04/23 07:50:19;;;;;;;4.87;1.40;;;16.10;98.00;;;;;;5032636;28;20455;-62
2023/04/23 07:52:46;;;;;;;1.60;1.33;;;16.20;98.00;;;;;;5032780;28;20486;-61
2023/04/23 07:55:14;;;;;;;2.03;1.30;;;16.30;98.00;;;;;;5032821;28;20458;-62
2023/04/23 07:57:42;;;;;;;1.50;1.40;;;16.40;98.00;;;;;;5032121;28;20454;-62
2023/04/23 08:00:10;;;;;;;1.53;1.40;;;16.60;98.00;;;;;;5032756;28;21030;-64
2023/04/23 08:02:37;;;;;;;1.80;1.40;;;16.70;98.00;;;;;;5032558;28;20915;-62
2023/04/23 08:05:06;;;;;;;1.77;1.40;;;16.70;98.00;;;;;;5015002;28;20505;-62
2023/04/23 08:07:34;;;;;;;3.50;1.40;;;16.70;98.00;;;;;;4998846;28;20501;-62
2023/04/23 08:10:04;;;;;;;3.37;1.80;;;17.00;98.00;;;;;;5031755;28;20509;-61
2023/04/23 08:12:34;;;;;;;1.70;1.60;;;16.90;98.00;;;;;;5032145;28;20461;-61
2023/04/23 08:15:03;;;;;;;2.17;1.43;;;17.00;98.00;;;;;;5032274;28;20458;-62
2023/04/23 08:17:30;;;;;;;1.40;1.20;;;17.20;98.00;;;;;;5032195;28;20866;-63
2023/04/23 08:19:57;;;;;;;1.70;1.30;;;17.50;98.00;;;;;;5032144;28;20877;-61
2023/04/23 08:22:25;;;;;;;2.90;1.77;;;17.70;98.00;;;;;;5032127;28;20454;-62
2023/04/23 08:24:52;;;;;;;1.53;1.33;;;17.90;98.00;;;;;;5014816;28;20451;-63
2023/04/23 08:27:21;;;;;;;1.80;1.50;;;17.80;98.00;;;;;;5031964;28;20835;-62
2023/04/23 08:29:48;;;;;;;1.73;1.60;;;17.90;98.00;;;;;;5014884;28;21020;-63
2023/04/23 08:32:17;;;;;;;1.70;1.30;;;18.00;98.00;;;;;;5031857;28;20459;-62
2023/04/23 08:34:44;;;;;;;1.83;1.40;;;17.80;98.00;;;;;;5031937;28;20462;-61
2023/04/23 08:37:11;;;;;;;1.90;1.57;;;17.50;98.00;;;;;;5031028;28;20458;-62
2023/04/23 08:39:38;;;;;;;1.40;1.40;;;17.40;98.00;;;;;;5014003;28;20544;-61
2023/04/23 08:42:11;;;;;;;2.00;1.80;;;17.50;98.00;;;;;;5031652;28;20987;-62
2023/04/23 08:44:42;;;;;;;4.03;2.03;;;17.40;98.00;;;;;;5031698;28;20497;-63
2023/04/23 08:47:12;;;;;;;2.90;1.93;;;17.40;98.00;;;;;;5031829;28;20545;-62
2023/04/23 08:49:49;;;;;;;3.07;1.80;;;17.40;98.00;;;;;;5031817;28;20465;-62
2023/04/23 08:52:19;;;;;;;1.60;1.47;;;17.50;98.00;;;;;;5032074;28;21170;-62
2023/04/23 08:54:56;;;;;;;2.27;1.63;;;17.60;98.00;;;;;;5032451;28;20454;-61
2023/04/23 08:57:25;;;;;;;1.80;1.50;;;17.70;98.00;;;;;;5032375;28;20470;-62
2023/04/23 08:59:52;;;;;;;1.80;1.37;;;17.60;98.00;;;;;;5032375;28;20490;-63
2023/04/23 09:02:20;;;;;;;2.03;1.40;;;17.40;98.00;;;;;;5031942;28;20458;-65
2023/04/23 09:04:49;;;;;;;1.73;1.40;;;17.40;98.00;;;;;;5031852;28;20451;-65
2023/04/23 09:07:18;;;;;;;1.90;1.60;;;17.20;98.00;;;;;;5031474;28;20471;-65
2023/04/23 09:09:45;;;;;;;3.97;2.13;;;17.30;98.00;;;;;;5031343;28;20463;-65
2023/04/23 09:12:13;;;;;;;3.53;1.97;;;17.60;98.00;;;;;;5031563;28;20454;-65
2023/04/23 09:14:40;;;;;;;2.57;1.73;;;18.00;98.00;;;;;;5032103;28;20884;-65
2023/04/23 09:17:08;;;;;;;1.53;1.30;;;18.20;98.00;;;;;;5031826;28;20815;-65
2023/04/23 09:19:37;;;;;;;2.23;1.50;;;18.30;98.00;;;;;;5031913;28;20490;-65
2023/04/23 09:22:07;;;;;;;4.50;1.33;;;18.40;98.00;;;;;;5031710;28;20965;-63
2023/04/23 09:24:35;;;;;;;2.90;1.40;;;18.40;98.00;;;;;;5031943;28;20451;-62
2023/04/23 09:27:02;;;;;;;1.63;1.40;;;18.40;98.00;;;;;;5031716;28;20999;-63
2023/04/23 09:29:30;;;;;;;2.10;1.50;;;18.30;98.00;;;;;;5031902;28;20459;-62
2023/04/23 09:32:07;;;;;;;1.80;1.50;;;18.30;98.00;;;;;;5014259;28;20545;-62
2023/04/23 09:34:36;;;;;;;1.50;1.37;;;18.20;98.00;;;;;;5014472;28;20497;-61
2023/04/23 09:37:05;;;;;;;2.60;1.50;;;18.10;98.00;;;;;;5031555;28;20486;-62
2023/04/23 09:39:34;;;;;;;1.80;1.40;;;18.20;98.00;;;;;;5031440;28;20497;-61
2023/04/23 09:42:06;;;;;;;1.80;1.47;;;18.40;98.00;;;;;;5031719;28;20497;-62
2023/04/23 09:44:34;;;;;;;1.50;1.30;;;18.60;98.00;;;;;;5031873;28;20532;-61
2023/04/23 09:47:10;;;;;;;1.50;1.30;;;18.70;98.00;;;;;;5031625;28;20500;-65
2023/04/23 09:49:46;;;;;;;3.43;1.67;;;18.90;98.00;;;;;;5033712;28;20886;-62
2023/04/23 09:52:13;;;;;;;1.57;1.43;;;18.80;98.00;;;;;;5033632;28;20494;-62
2023/04/23 09:54:45;;;;;;;2.77;1.70;;;18.40;98.00;;;;;;5034073;28;20451;-63
2023/04/23 09:57:15;;;;;;;2.20;1.53;;;18.70;98.00;;;;;;5034878;28;20455;-64
2023/04/23 09:59:42;;;;;;;1.50;1.40;;;19.00;98.00;;;;;;5034994;28;20482;-64
2023/04/23 10:02:11;;;;;;;1.63;1.30;;;19.20;98.00;;;;;;5035081;28;20536;-63
2023/04/23 10:04:38;;;;;;;1.80;1.40;;;19.50;98.00;;;;;;5034582;28;21012;-63
2023/04/23 10:07:12;;;;;;;1.60;1.60;;;19.80;98.00;;;;;;5017019;28;20470;-63
2023/04/23 10:09:41;;;;;;;1.60;1.50;;;20.00;97.40;;;;;;5034796;28;20458;-62
2023/04/23 10:12:10;;;;;;;5.63;1.60;;;20.20;96.70;;;;;;5034467;28;20474;-63
2023/04/23 10:14:39;;;;;;;2.50;1.50;;;20.30;95.50;;;;;;5034591;28;20454;-62
2023/04/23 10:17:09;;;;;;;2.00;1.53;;;20.40;95.00;;;;;;5034366;28;20975;-63
2023/04/23 10:19:39;;;;;;;1.87;1.50;;;20.30;93.00;;;;;;5034436;28;20487;-64
2023/04/23 10:22:10;;;;;;;1.50;1.40;;;20.10;93.30;;;;;;5034384;28;20488;-63
2023/04/23 10:24:40;;;;;;;2.30;1.67;;;20.00;95.10;;;;;;5034438;28;20478;-63
2023/04/23 10:27:13;;;;;;;2.17;1.53;;;20.20;95.50;;;;;;5034191;28;20529;-63
2023/04/23 10:29:41;;;;;;;1.60;1.50;;;20.10;92.50;;;;;;5034204;28;20463;-64
2023/04/23 10:32:09;;;;;;;1.70;1.50;;;20.10;93.60;;;;;;5034133;28;20459;-63
2023/04/23 10:34:37;;;;;;;1.90;1.40;;;20.30;94.40;;;;;;5033942;28;20541;-63
2023/04/23 10:37:07;;;;;;;1.70;1.50;;;20.40;92.60;;;;;;5033982;28;20655;-63
2023/04/23 10:39:35;;;;;;;1.67;1.50;;;20.40;91.60;;;;;;5034874;28;20483;-63
2023/04/23 10:42:03;;;;;;;1.93;1.67;;;20.70;92.70;;;;;;5034882;28;20847;-63
2023/04/23 10:44:37;;;;;;;2.00;1.43;;;20.90;92.80;;;;;;5017576;28;20459;-63
2023/04/23 10:47:06;;;;;;;2.07;1.43;;;21.30;92.50;;;;;;5034544;28;20462;-63
2023/04/23 10:49:34;;;;;;;2.07;1.53;;;21.60;92.40;;;;;;5034974;28;20454;-64
2023/04/23 10:52:02;;;;;;;1.90;1.33;;;21.70;89.30;;;;;;5034689;28;20450;-64
2023/04/23 10:54:31;;;;;;;1.30;1.23;;;21.90;88.40;;;;;;5034827;28;20458;-63
2023/04/23 10:57:02;;;;;;;1.70;1.40;;;22.00;88.70;;;;;;5034692;28;21007;-64
2023/04/23 10:59:30;;;;;;;1.70;1.40;;;21.80;86.70;;;;;;5016753;28;20467;-63
2023/04/23 11:04:55;;;;;;;2.50;1.70;;;21.70;87.30;;;;;;5033836;28;20459;-63
2023/04/23 11:07:32;;;;;;;2.20;1.60;;;22.10;87.50;;;;;;5033896;28;20498;-64
2023/04/23 11:10:10;;;;;;;1.47;1.30;;;22.40;87.10;;;;;;5034206;28;20455;-64
2023/04/23 11:12:39;;;;;;;1.90;1.50;;;22.60;88.10;;;;;;5034233;28;20450;-64
2023/04/23 11:15:13;;;;;;;1.60;1.43;;;22.50;87.00;;;;;;5034286;28;20462;-63
2023/04/23 11:18:01;;;;;;;1.80;1.50;;;22.50;87.30;;;;;;5033969;28;20458;-63
2023/04/23 11:20:28;;;;;;;2.27;1.50;;;22.50;87.20;;;;;;5034067;28;20569;-64
2023/04/23 11:22:55;;;;;;;1.30;1.30;;;22.60;86.10;;;;;;5034090;28;20971;-63
2023/04/23 11:25:24;;;;;;;1.60;1.40;;;22.70;85.10;;;;;;5016387;28;20458;-63
2023/04/23 11:27:53;;;;;;;2.27;1.73;;;22.90;87.50;;;;;;5033901;28;20552;-63
2023/04/23 11:30:28;;;;;;;2.03;1.73;;;23.10;87.00;;;;;;5034009;28;20454;-63
2023/04/23 11:32:56;;;;;;;1.63;1.40;;;22.70;87.70;;;;;;5033540;28;20466;-64
2023/04/23 11:35:28;;;;;;;1.63;1.40;;;22.50;89.70;;;;;;5033616;28;20458;-63
2023/04/23 11:37:55;;;;;;;2.53;1.77;;;22.10;87.70;;;;;;5034010;28;20923;-63
2023/04/23 11:40:23;;;;;;;2.60;1.73;;;21.60;87.90;;;;;;5016492;28;20817;-64
2023/04/23 11:42:52;;;;;;;1.77;1.63;;;21.60;89.30;;;;;;5033788;28;20463;-64
2023/04/23 11:45:21;;;;;;;1.50;1.50;;;21.60;90.60;;;;;;5033824;28;20494;-63
2023/04/23 11:47:52;;;;;;;1.50;1.40;;;21.50;88.80;;;;;;5033676;28;20454;-65
2023/04/23 11:50:20;;;;;;;1.43;1.20;;;21.50;90.20;;;;;;5033578;28;20953;-63
2023/04/23 11:52:49;;;;;;;1.60;1.50;;;21.80;90.50;;;;;;5033617;28;20463;-63
2023/04/23 11:55:16;;;;;;;3.90;1.90;;;22.10;90.10;;;;;;5033333;28;21175;-62
2023/04/23 11:57:45;;;;;;;3.60;2.13;;;22.10;89.90;;;;;;5033388;28;20904;-64
2023/04/23 12:00:16;;;;;;;1.70;1.47;;;22.10;90.20;;;;;;5033201;28;20566;-63
2023/04/23 12:03:02;;;;;;;2.03;1.43;;;22.30;87.00;;;;;;5033217;28;20467;-64
2023/04/23 12:05:31;;;;;;;1.90;1.53;;;22.40;86.20;;;;;;5033481;28;21139;-63
2023/04/23 12:08:09;;;;;;;1.63;1.40;;;22.60;84.10;;;;;;5032887;28;20462;-63
2023/04/23 12:10:43;;;;;;;1.40;1.30;;;22.60;84.80;;;;;;5033206;28;20525;-63
2023/04/23 12:13:14;;;;;;;1.60;1.37;;;22.70;84.60;;;;;;5032319;28;20494;-63
2023/04/23 12:15:46;;;;;;;1.60;1.40;;;22.90;83.50;;;;;;5033275;28;20473;-64
2023/04/23 12:18:13;;;;;;;2.00;1.60;;;23.20;82.10;;;;;;5033083;28;20458;-63
2023/04/23 12:20:41;;;;;;;2.40;1.70;;;23.40;84.50;;;;;;5033088;28;20489;-65
2023/04/23 12:23:09;;;;;;;2.10;1.70;;;23.50;84.00;;;;;;5032755;28;20550;-64
2023/04/23 12:25:37;;;;;;;1.67;1.60;;;23.80;82.50;;;;;;5033145;28;20451;-63
2023/04/23 12:28:05;;;;;;;1.93;1.60;;;23.60;82.50;;;;;;5032922;28;20501;-64
2023/04/23 12:30:34;;;;;;;1.50;1.50;;;23.80;81.90;;;;;;5033031;28;20467;-64
2023/04/23 12:33:01;;;;;;;1.70;1.63;;;24.30;81.50;;;;;;5032936;28;20462;-63
2023/04/23 12:35:39;;;;;;;1.60;1.50;;;24.60;80.90;;;;;;5033219;28;20520;-63
2023/04/23 12:38:06;;;;;;;2.53;1.70;;;25.00;81.00;;;;;;5033007;28;20541;-64
2023/04/23 12:40:35;;;;;;;1.70;1.50;;;24.90;80.60;;;;;;5015538;28;20574;-64
2023/04/23 12:43:02;;;;;;;1.70;1.53;;;25.10;82.10;;;;;;5032892;28;20462;-63
2023/04/23 12:45:38;;;;;;;1.70;1.63;;;25.50;79.80;;;;;;5032989;28;20941;-64
2023/04/23 12:48:05;;;;;;;2.20;2.00;;;26.10;79.50;;;;;;5032619;28;20512;-63
2023/04/23 12:50:32;;;;;;;1.80;1.63;;;26.30;79.90;;;;;;5032762;28;20463;-64
2023/04/23 12:53:00;;;;;;;1.87;1.73;;;26.40;75.90;;;;;;5032268;28;20454;-63
2023/04/23 12:55:27;;;;;;;3.60;2.20;;;26.40;77.20;;;;;;5032493;28;20457;-64
2023/04/23 12:57:56;;;;;;;3.27;1.80;;;25.70;77.10;;;;;;5032314;28;20455;-64